Redding (RDD/KRDD)

Map

Destinations

Information

Location
Redding, CA
Local Time
17:15 / 5:15 pm
GMT Time
00:15 / 12:15 am
Gates
3
No FAA reported delays
METAR KRDD 252353Z 00000KT 10SM OVC055 18/07 A3000 RMK AO2 SLP155 T01830067 10194 20144 55007
TAF KRDD 252332Z 2600/2624 VRB04KT P6SM VCSH BKN070 FM261100 19006KT P6SM -RA OVC050 FM261700 18007KT P6SM OVC050